Latest Coastal Weather Observations for Alva Beach

IDQ60701

Issued at 10:21 am EST Monday 27 April 2015 (issued every 10 minutes, with the page automatically refreshed every 10 minutes)

About coastal observations | Map of coastal stations | Coastal observations for QLD | Marine services | Other Formats
Station Details ID: 033295 Name: ALVA BEACH Lat: -19.46 Lon: 147.48 Height: 7.5 m
Data from the previous 72 hours. | See also: Recent months at Alva Beach
Date/Time
EST
Temp

°C
Wind Pressure Rain
since 9am
mm
Weather Cloud Vis
km
Sea
Height
m
Swell
Dir
 
Speed
knots
Gust
knots
hPa Trend Height
m
Period
s
Dir
27/10:00am 24.9 SE 7 12 1017.8 - 0.0 - - - - - - -
27/09:30am 24.1 S 6 10 1017.9 - 0.0 - - - - - - -
27/09:00am 22.2 S 6 8 1017.7 - 0.0 - - - - - - -
27/08:30am 20.2 S 6 9 1017.6 - 0.0 - - - - - - -
27/08:00am 18.6 SSW 6 9 1017.5 - 0.0 - - - - - - -
27/07:30am 16.1 SW 5 9 1017.1 - 0.0 - - - - - - -
27/07:00am 14.0 SSW 5 7 1016.8 - 0.0 - - - - - - -
27/06:30am 13.0 SW 5 6 1016.4 - 0.0 - - - - - - -
27/06:00am 13.2 SW 5 6 1016.1 - 0.0 - - - - - - -
27/05:30am 13.5 SW 5 7 1015.7 - 0.0 - - - - - - -
27/05:00am 13.9 SW 4 5 1015.4 - 0.0 - - - - - - -
27/04:30am 15.1 SW 5 7 1014.9 - 0.0 - - - - - - -
27/04:00am 15.5 SW 5 7 1014.8 - 0.0 - - - - - - -
27/03:30am 15.6 SW 6 8 1014.9 - 0.0 - - - - - - -
27/03:00am 16.2 SW 5 7 1014.9 - 0.0 - - - - - - -
27/02:30am 17.1 SSW 5 6 1014.9 - 0.0 - - - - - - -
27/02:00am 17.3 SSW 5 7 1014.9 - 0.0 - - - - - - -
27/01:30am 17.5 S 5 6 1015.0 - 0.0 - - - - - - -
27/01:00am 17.8 S 5 7 1015.1 - 0.0 - - - - - - -
27/12:30am 19.0 SSE 4 6 1015.3 - 0.0 - - - - - - -
27/12:00am 18.6 SE 4 6 1015.6 - 0.0 - - - - - - -
 
Date/Time
EST
Temp

°C
Wind Pressure Rain
since 9am
mm
Weather Cloud Vis
km
Sea
Height
m
Swell
Dir
 
Speed
knots
Gust
knots
hPa Trend Height
m
Period
s
Dir
26/11:30pm 18.3 SSE 5 6 1015.8 - 0.0 - - - - - - -
26/11:00pm 18.5 SE 3 6 1015.8 - 0.0 - - - - - - -
26/10:30pm 19.2 SE 3 5 1015.9 - 0.0 - - - - - - -
26/10:00pm 19.6 SSE 5 6 1015.9 - 0.0 - - - - - - -
26/09:30pm 19.6 SSW 4 6 1015.9 - 0.0 - - - - - - -
26/09:00pm 20.3 SSW 5 8 1015.7 - 0.0 - - - - - - -
26/08:30pm 20.0 SSW 5 6 1015.5 - 0.0 - - - - - - -
26/08:00pm 20.1 SSE 5 9 1015.2 - 0.0 - - - - - - -
26/07:30pm 21.3 SW 5 7 1014.5 - 0.0 - - - - - - -
26/07:00pm 22.2 SW 3 5 1014.1 - 0.0 - - - - - - -
26/06:30pm 23.2 SW 2 4 1013.7 - 0.0 - - - - - - -
26/06:00pm 24.7 N 3 5 1013.4 - 0.0 - - - - - - -
26/05:30pm 25.9 CALM 0 4 1013.1 - 0.0 - - - - - - -
26/05:00pm 26.9 NE 4 7 1012.6 - 0.0 - - - - - - -
26/04:30pm 27.7 NE 5 6 1012.3 - 0.0 - - - - - - -
26/04:00pm 27.9 NE 6 8 1012.2 - 0.0 - - - - - - -
26/03:30pm 28.2 ENE 5 7 1012.1 - 0.0 - - - - - - -
26/03:00pm 29.4 ESE 4 7 1012.2 - 0.0 - - - - - - -
26/02:30pm 30.2 SSW 6 10 1012.2 - 0.0 - - - - - - -
26/02:00pm 29.9 SW 6 13 1012.4 - 0.0 - - - - - - -
26/01:30pm 29.5 S 7 13 1012.8 - 0.0 - - - - - - -
26/01:00pm 28.8 SSW 7 12 1013.3 - 0.0 - - - - - - -
26/12:30pm 28.4 SSW 7 11 1013.8 - 0.0 - - - - - - -
26/12:00pm 28.1 SSW 7 16 1014.2 - 0.0 - - - - - - -
26/11:30am 27.4 SSW 8 13 1014.7 - 0.0 - - - - - - -
26/11:00am 26.3 SSW 9 16 1015.0 - 0.0 - - - - - - -
26/10:30am 26.4 SSW 10 17 1015.3 - 0.0 - - - - - - -
26/10:00am 25.5 SSW 9 16 1015.6 - 0.0 - - - - - - -
26/09:30am 24.6 SSW 9 15 1015.5 - 0.0 - - - - - - -
26/09:00am 23.3 SSW 9 16 1015.2 - 0.0 - - - - - - -
26/08:30am 22.1 SSW 9 15 1014.8 - 0.0 - - - - - - -
26/08:00am 20.4 SSW 8 13 1014.5 - 0.0 - - - - - - -
26/07:30am 18.2 SSW 6 9 1014.4 - 0.0 - - - - - - -
26/07:00am 16.8 SSW 6 8 1014.2 - 0.0 - - - - - - -
26/06:30am 16.3 SW 5 7 1013.9 - 0.0 - - - - - - -
26/06:00am 16.7 SSW 5 7 1013.4 - 0.0 - - - - - - -
26/05:30am 17.3 SSW 7 9 1013.0 - 0.0 - - - - - - -
26/05:00am 17.4 SW 6 8 1012.6 - 0.0 - - - - - - -
26/04:30am 17.8 SSW 6 9 1012.2 - 0.0 - - - - - - -
26/04:00am 18.0 SSW 6 9 1012.0 - 0.0 - - - - - - -
26/03:30am 18.2 SSW 5 7 1011.9 - 0.0 - - - - - - -
26/03:00am 18.3 SSW 5 6 1011.8 - 0.0 - - - - - - -
26/02:30am 19.1 SSW 5 7 1011.7 - 0.0 - - - - - - -
26/02:00am 19.9 SW 5 8 1011.8 - 0.0 - - - - - - -
26/01:30am 20.2 SW 4 7 1011.8 - 0.0 - - - - - - -
26/01:00am 20.4 SW 4 6 1012.2 - 0.0 - - - - - - -
26/12:30am 20.8 SW 3 4 1012.4 - 0.0 - - - - - - -
26/12:00am 21.3 WSW 4 5 1012.7 - 0.0 - - - - - - -
 
Date/Time
EST
Temp

°C
Wind Pressure Rain
since 9am
mm
Weather Cloud Vis
km
Sea
Height
m
Swell
Dir
 
Speed
knots
Gust
knots
hPa Trend Height
m
Period
s
Dir
25/11:30pm 21.5 WSW 3 5 1012.6 - 0.0 - - - - - - -
25/11:00pm 21.5 W 2 4 1012.7 - 0.0 - - - - - - -
25/10:30pm 21.9 CALM 0 0 1012.7 - 0.0 - - - - - - -
25/10:00pm 22.3 WNW 2 4 1012.7 - 0.0 - - - - - - -
25/09:30pm 22.8 WNW 1 3 1012.8 - 0.0 - - - - - - -
25/09:00pm 23.6 NW 2 4 1012.8 - 0.0 - - - - - - -
25/08:30pm 24.0 NW 2 4 1012.5 - 0.0 - - - - - - -
25/08:00pm 24.1 NW 3 4 1012.1 - 0.0 - - - - - - -
25/07:30pm 24.5 NNW 3 5 1011.6 - 0.0 - - - - - - -
25/07:00pm 24.8 NW 4 5 1011.3 - 0.0 - - - - - - -
25/06:30pm 25.2 NNW 4 7 1010.9 - 0.0 - - - - - - -
25/06:00pm 25.5 NNW 5 8 1010.6 - 0.0 - - - - - - -
25/05:30pm 26.1 NNW 6 9 1010.3 - 0.0 - - - - - - -
25/05:00pm 26.2 N 8 12 1009.9 - 0.0 - - - - - - -
25/04:30pm 26.6 N 10 14 1009.4 - 0.0 - - - - - - -
25/04:00pm 26.9 N 11 14 1009.1 - 0.0 - - - - - - -
25/03:30pm 27.2 N 12 17 1009.0 - 0.0 - - - - - - -
25/03:00pm 27.4 N 11 15 1009.0 - 0.0 - - - - - - -
25/02:30pm 27.4 N 10 14 1009.1 - 0.0 - - - - - - -
25/02:00pm 27.6 NNE 11 14 1009.4 - 0.0 - - - - - - -
25/01:30pm 27.6 N 11 15 1009.7 - 0.0 - - - - - - -
25/01:00pm 27.7 NNE 11 14 1010.3 - 0.0 - - - - - - -
25/12:30pm 28.0 NNE 11 14 1010.6 - 0.0 - - - - - - -
25/12:00pm 28.0 N 7 12 1010.8 - 0.0 - - - - - - -
25/11:30am 28.3 N 7 13 1011.2 - 0.0 - - - - - - -
25/11:00am 27.0 NNE 9 11 1011.7 - 0.0 - - - - - - -
25/10:30am 27.4 NW 5 7 1012.0 - 0.0 - - - - - - -
25/10:00am 27.0 NW 4 7 1012.3 - 0.0 - - - - - - -
25/09:30am 26.3 W 3 4 1012.4 - 0.0 - - - - - - -
25/09:00am 25.2 SW 4 6 1012.3 - 0.0 - - - - - - -
25/08:30am 23.9 SSW 3 6 1012.1 - 0.0 - - - - - - -
25/08:00am 21.9 SSW 3 5 1011.9 - 0.0 - - - - - - -
25/07:30am 20.1 SW 3 4 1011.7 - 0.0 - - - - - - -
25/07:00am 18.6 SSW 4 5 1011.4 - 0.0 - - - - - - -
25/06:30am 17.8 S 4 5 1011.1 - 0.0 - - - - - - -
25/06:00am 17.9 SSW 4 5 1010.8 - 0.0 - - - - - - -
25/05:30am 17.9 SSW 4 5 1010.5 - 0.0 - - - - - - -
25/05:00am 18.0 SSW 5 6 1010.3 - 0.0 - - - - - - -
25/04:30am 18.4 SW 5 7 1010.2 - 0.0 - - - - - - -
25/04:00am 18.9 SSW 5 6 1010.0 - 0.0 - - - - - - -
25/03:30am 19.3 SSW 4 5 1009.9 - 0.0 - - - - - - -
25/03:00am 19.5 SW 5 5 1010.0 - 0.0 - - - - - - -
25/02:30am 19.9 WSW 3 4 1010.1 - 0.0 - - - - - - -
25/02:00am 20.0 SW 3 4 1010.1 - 0.0 - - - - - - -
25/01:30am 20.8 WNW 3 3 1010.3 - 0.0 - - - - - - -
25/01:00am 22.3 NW 3 5 1010.4 - 0.0 - - - - - - -
25/12:30am 22.1 NW 3 5 1010.8 - 0.0 - - - - - - -
25/12:00am 22.4 NW 4 5 1010.8 - 0.0 - - - - - - -
 
Date/Time
EST
Temp

°C
Wind Pressure Rain
since 9am
mm
Weather Cloud Vis
km
Sea
Height
m
Swell
Dir
 
Speed
knots
Gust
knots
hPa Trend Height
m
Period
s
Dir
24/11:30pm 22.6 NNW 4 5 1010.9 - 0.0 - - - - - - -
24/11:00pm 22.7 NNW 3 5 1011.1 - 0.0 - - - - - - -
24/10:30pm 22.7 NW 3 6 1011.1 - 0.0 - - - - - - -
24/10:00pm 22.9 NNW 4 5 1011.1 - 0.0 - - - - - - -
24/09:30pm 23.1 NNW 3 5 1011.0 - 0.0 - - - - - - -
24/09:00pm 23.5 NNW 4 6 1010.8 - 0.0 - - - - - - -
24/08:30pm 23.7 NNW 4 5 1010.5 - 0.0 - - - - - - -
24/08:00pm 23.5 NNW 4 6 1010.3 - 0.0 - - - - - - -
24/07:30pm 23.3 NNW 4 5 1009.9 - 0.0 - - - - - - -
24/07:00pm 23.7 NW 3 6 1009.6 - 0.0 - - - - - - -
24/06:30pm 24.0 NW 4 6 1009.2 - 0.0 - - - - - - -
24/06:00pm 24.4 NNW 6 9 1008.9 - 0.0 - - - - - - -
24/05:30pm 24.8 NNW 7 11 1008.8 - 0.0 - - - - - - -
24/05:00pm 25.3 N 7 11 1008.7 - 0.0 - - - - - - -
24/04:30pm 25.9 N 7 11 1008.5 - 0.0 - - - - - - -
24/04:00pm 26.4 N 8 13 1008.6 - 0.0 - - - - - - -
24/03:30pm 26.2 N 9 13 1008.5 - 0.0 - - - - - - -
24/03:00pm 26.6 N 10 14 1008.7 - 0.0 - - - - - - -
24/02:30pm 26.9 N 12 15 1008.8 - 0.0 - - - - - - -
24/02:00pm 26.7 NNE 11 15 1009.0 - 0.0 - - - - - - -
24/01:30pm 27.0 NNE 12 15 1009.3 - 0.0 - - - - - - -
24/01:00pm 26.6 NNE 11 13 1009.7 - 0.0 - - - - - - -
24/12:30pm 27.0 NNE 9 11 1010.2 - 0.0 - - - - - - -
24/12:00pm 26.5 NNE 9 11 1010.7 - 0.0 - - - - - - -
24/11:30am 26.7 NNE 8 9 1011.3 - 0.0 - - - - - - -
24/11:00am 26.3 NE 6 8 1011.7 - 0.0 - - - - - - -
24/10:30am 26.2 NNE 6 7 1011.9 - 0.0 - - - - - - -

Other Formats:

Comma delimited format used in spreadsheet applications
http://www.bom.gov.au/fwo/IDQ60701/IDQ60701.95296.axf

JavaScript Object Notation format (JSON) in row-major order
http://www.bom.gov.au/fwo/IDQ60701/IDQ60701.95296.json